Dades meteomassalio
Diari Summary for Gener 3, 2017 Units:  English    Metric   Both
« Previous Day
Next Day »
Diari Semanal Mensual Anual Personalitzat
  Maxima: Minima: Mijana:
Temperatura: TemperatureC °F -1.6 °F 0.8 °F
Rosada: DewpointC °F -2.3 °F 0.1 °F
Humitat: Humidity % 95 % 95 %
Velocitat del vent: WindSpeedKMH mph 0.0 mph 0 mph
Racha vent: WindSpeedGustKMH mph - -
Vent:- - North
Pressio: PressurehPa in 1026.0 in -
Pluja: 0.0 in    
Historical Graphs
 
 
Tabular Data for Gener 3, 2017
Time Temperature Dew Point Pressure Wind Wind Speed Wind Gust Humidity Rainfall Rate (Hourly) solar Conditions
TemperatureC °F DewpointC °F PressurehPa in Calm     Humidity % HourlyPrecipMM in SolarRadiationWatts/m^2 W/m2 Conditions
00:04 0.1 °F -0.7 °F 1026.6 in Calm     95 % 0.0 in 0.0 W/m2 RA
00:09 0.1 °F -0.7 °F 1026.6 in Calm     95 % 0.0 in 0.0 W/m2 CLR
00:14 0.1 °F -0.7 °F 1026.6 in Calm     95 % 0.0 in 0.0 W/m2 CLR
00:19 0.1 °F -0.7 °F 1027.0 in Calm     95 % 0.0 in 0.0 W/m2 CLR
00:24 0.1 °F -0.7 °F 1027.0 in Calm     95 % 0.0 in 0.0 W/m2 CLR
00:29 0.1 °F -0.7 °F 1026.6 in Calm     95 % 0.0 in 0.0 W/m2 CLR
00:34 0.1 °F -0.7 °F 1026.6 in Calm     95 % 0.0 in 0.0 W/m2 CLR
00:39 0.1 °F -0.7 °F 1026.6 in Calm     95 % 0.0 in 0.0 W/m2 CLR
00:44 0.0 °F -0.7 °F 1027.0 in Calm     95 % 0.0 in 0.0 W/m2 CLR
00:49 0.0 °F -0.7 °F 1027.0 in Calm     95 % 0.0 in 0.0 W/m2 CLR
00:54 -0.1 °F -0.8 °F 1027.0 in Calm     95 % 0.0 in 0.0 W/m2 CLR
00:59 -0.1 °F -0.8 °F 1027.0 in Calm     95 % 0.0 in 0.0 W/m2 CLR
01:04 -0.2 °F -0.9 °F 1027.0 in Calm     95 % 0.0 in 0.0 W/m2 CLR
01:09 -0.2 °F -0.9 °F 1027.0 in Calm     95 % 0.0 in 0.0 W/m2 CLR
01:14 -0.3 °F -1.0 °F 1026.6 in Calm     95 % 0.0 in 0.0 W/m2 CLR
01:19 -0.3 °F -1.0 °F 1026.6 in Calm     95 % 0.0 in 0.0 W/m2 CLR
01:24 -0.3 °F -1.0 °F 1026.6 in Calm     95 % 0.0 in 0.0 W/m2 CLR
01:29 -0.3 °F -1.0 °F 1026.6 in Calm     95 % 0.0 in 0.0 W/m2 CLR
01:34 -0.2 °F -0.9 °F 1026.6 in Calm     95 % 0.0 in 0.0 W/m2 CLR
01:39 -0.2 °F -0.9 °F 1027.0 in Calm     95 % 0.0 in 0.0 W/m2 CLR
01:44 -0.3 °F -1.0 °F 1027.0 in Calm     95 % 0.0 in 0.0 W/m2 CLR
01:49 -0.3 °F -1.0 °F 1026.6 in Calm     95 % 0.0 in 0.0 W/m2 CLR
01:54 -0.3 °F -1.0 °F 1026.6 in Calm     95 % 0.0 in 0.0 W/m2 CLR
01:59 -0.3 °F -1.0 °F 1026.6 in Calm     95 % 0.0 in 0.0 W/m2 CLR
02:04 -0.3 °F -1.0 °F 1026.6 in Calm     95 % 0.0 in 0.0 W/m2 CLR
02:09 -0.4 °F -1.1 °F 1026.6 in Calm     95 % 0.0 in 0.0 W/m2 CLR
02:14 -0.4 °F -1.2 °F 1026.6 in Calm     95 % 0.0 in 0.0 W/m2 CLR
02:19 -0.4 °F -1.2 °F 1026.6 in Calm     95 % 0.0 in 0.0 W/m2 CLR
02:24 -0.4 °F -1.1 °F 1026.6 in Calm     95 % 0.0 in 0.0 W/m2 CLR
02:29 -0.4 °F -1.1 °F 1026.3 in Calm     95 % 0.0 in 0.0 W/m2 CLR
02:34 -0.4 °F -1.1 °F 1026.3 in Calm     95 % 0.0 in 0.0 W/m2 CLR
02:39 -0.3 °F -1.1 °F 1026.3 in Calm     95 % 0.0 in 0.0 W/m2 CLR
02:45 -0.4 °F -1.1 °F 1026.3 in Calm     95 % 0.0 in 0.0 W/m2 CLR
02:50 -0.3 °F -1.1 °F 1026.3 in Calm     95 % 0.0 in 0.0 W/m2 CLR
02:55 -0.4 °F -1.1 °F 1026.3 in Calm     95 % 0.0 in 0.0 W/m2 CLR
03:00 -0.4 °F -1.1 °F 1026.3 in Calm     95 % 0.0 in 0.0 W/m2 CLR
03:05 -0.5 °F -1.2 °F 1026.3 in Calm     95 % 0.0 in 0.0 W/m2 CLR
03:10 -0.5 °F -1.2 °F 1026.3 in Calm     95 % 0.0 in 0.0 W/m2 CLR
03:15 -0.5 °F -1.2 °F 1026.3 in Calm     95 % 0.0 in 0.0 W/m2 CLR
03:20 -0.4 °F -1.2 °F 1026.3 in Calm     95 % 0.0 in 0.0 W/m2 CLR
03:25 -0.4 °F -1.2 °F 1026.3 in Calm     95 % 0.0 in 0.0 W/m2 CLR
03:30 -0.4 °F -1.2 °F 1026.3 in Calm     95 % 0.0 in 0.0 W/m2 CLR
03:35 -0.4 °F -1.2 °F 1026.3 in Calm     95 % 0.0 in 0.0 W/m2 CLR
03:40 -0.4 °F -1.1 °F 1026.3 in Calm     95 % 0.0 in 0.0 W/m2 CLR
03:45 -0.3 °F -1.1 °F 1026.3 in Calm     95 % 0.0 in 0.0 W/m2 CLR
03:50 -0.3 °F -1.1 °F 1026.3 in Calm     95 % 0.0 in 0.0 W/m2 CLR
03:55 -0.3 °F -1.0 °F 1026.3 in Calm     95 % 0.0 in 0.0 W/m2 CLR
04:00 -0.3 °F -1.0 °F 1026.3 in Calm     95 % 0.0 in 0.0 W/m2 CLR
04:05 -0.2 °F -0.9 °F 1026.3 in Calm     95 % 0.0 in 0.0 W/m2 CLR
04:10 -0.2 °F -0.9 °F 1026.3 in Calm     95 % 0.0 in 0.0 W/m2 CLR
04:15 -0.2 °F -0.9 °F 1026.3 in Calm     95 % 0.0 in 0.0 W/m2 CLR
04:20 -0.3 °F -1.0 °F 1026.3 in Calm     95 % 0.0 in 0.0 W/m2 CLR
04:25 -0.3 °F -1.0 °F 1026.3 in Calm     95 % 0.0 in 0.0 W/m2 CLR
04:30 -0.2 °F -0.9 °F 1026.0 in Calm     95 % 0.0 in 0.0 W/m2 CLR
04:35 -0.2 °F -0.9 °F 1026.3 in Calm     95 % 0.0 in 0.0 W/m2 CLR
04:40 -0.2 °F -0.9 °F 1026.3 in Calm     95 % 0.0 in 0.0 W/m2 CLR
04:45 -0.2 °F -0.9 °F 1026.3 in Calm     95 % 0.0 in 0.0 W/m2 CLR
04:50 -0.2 °F -0.9 °F 1026.3 in Calm     95 % 0.0 in 0.0 W/m2 CLR
04:55 -0.3 °F -1.0 °F 1026.3 in Calm     95 % 0.0 in 0.0 W/m2 CLR
05:00 -0.3 °F -1.0 °F 1026.3 in Calm     95 % 0.0 in 0.0 W/m2 CLR
05:05 -0.3 °F -1.0 °F 1026.3 in Calm     95 % 0.0 in 0.0 W/m2 CLR
05:10 -0.3 °F -1.0 °F 1026.3 in Calm     95 % 0.0 in 0.0 W/m2 CLR
05:15 -0.3 °F -1.0 °F 1026.3 in Calm     95 % 0.0 in 0.0 W/m2 CLR
05:20 -0.3 °F -1.0 °F 1026.3 in Calm     95 % 0.0 in 0.0 W/m2 CLR
05:25 -0.3 °F -1.0 °F 1026.3 in Calm     95 % 0.0 in 0.0 W/m2 CLR
05:30 -0.3 °F -1.1 °F 1026.3 in Calm     95 % 0.0 in 0.0 W/m2 CLR
05:35 -0.4 °F -1.1 °F 1026.3 in Calm     95 % 0.0 in 0.0 W/m2 CLR
05:40 -0.5 °F -1.2 °F 1026.3 in Calm     95 % 0.0 in 0.0 W/m2 CLR
05:45 -0.6 °F -1.3 °F 1026.3 in Calm     95 % 0.0 in 0.0 W/m2 CLR
05:50 -0.6 °F -1.3 °F 1026.3 in Calm     95 % 0.0 in 0.0 W/m2 CLR
05:55 -0.6 °F -1.3 °F 1026.3 in Calm     95 % 0.0 in 0.0 W/m2 CLR
06:00 -0.6 °F -1.3 °F 1026.6 in Calm     95 % 0.0 in 0.0 W/m2 CLR
06:05 -0.5 °F -1.2 °F 1026.6 in Calm     95 % 0.0 in 0.0 W/m2 CLR
06:10 -0.4 °F -1.2 °F 1026.6 in Calm     95 % 0.0 in 0.0 W/m2 CLR
06:15 -0.4 °F -1.2 °F 1026.6 in Calm     95 % 0.0 in 0.0 W/m2 CLR
06:20 -0.5 °F -1.2 °F 1026.6 in Calm     95 % 0.0 in 0.0 W/m2 CLR
06:25 -0.5 °F -1.2 °F 1026.3 in Calm     95 % 0.0 in 0.0 W/m2 CLR
06:30 -0.5 °F -1.2 °F 1026.3 in Calm     95 % 0.0 in 0.0 W/m2 CLR
06:35 -0.5 °F -1.2 °F 1026.3 in Calm     95 % 0.0 in 0.0 W/m2 CLR
06:40 -0.6 °F -1.3 °F 1026.3 in Calm     95 % 0.0 in 0.0 W/m2 CLR
06:45 -0.7 °F -1.4 °F 1026.6 in Calm     95 % 0.0 in 0.0 W/m2 CLR
06:50 -0.8 °F -1.5 °F 1026.6 in Calm     95 % 0.0 in 0.0 W/m2 CLR
06:55 -0.8 °F -1.6 °F 1026.6 in Calm     95 % 0.0 in 0.0 W/m2 CLR
07:00 -0.9 °F -1.7 °F 1026.6 in Calm     95 % 0.0 in 0.0 W/m2 CLR
07:05 -1.0 °F -1.7 °F 1026.6 in Calm     95 % 0.0 in 0.0 W/m2 CLR
07:10 -1.0 °F -1.7 °F 1027.0 in Calm     95 % 0.0 in 0.0 W/m2 CLR
07:15 -0.9 °F -1.7 °F 1026.6 in Calm     95 % 0.0 in 0.0 W/m2 CLR
07:20 -0.9 °F -1.7 °F 1027.0 in Calm     95 % 0.0 in 0.0 W/m2 CLR
07:25 -0.9 °F -1.7 °F 1027.0 in Calm     95 % 0.0 in 0.0 W/m2 CLR
07:30 -1.0 °F -1.7 °F 1027.0 in Calm     95 % 0.0 in 0.0 W/m2 CLR
07:35 -1.0 °F -1.7 °F 1027.0 in Calm     95 % 0.0 in 0.0 W/m2 CLR
07:40 -1.1 °F -1.8 °F 1027.0 in Calm     95 % 0.0 in 0.0 W/m2 CLR
07:45 -1.1 °F -1.8 °F 1027.0 in Calm     95 % 0.0 in 0.0 W/m2 CLR
07:50 -1.1 °F -1.8 °F 1027.0 in Calm     95 % 0.0 in 0.0 W/m2 CLR
07:55 -1.2 °F -1.9 °F 1027.0 in Calm     95 % 0.0 in 0.0 W/m2 CLR
08:00 -1.2 °F -1.9 °F 1027.0 in Calm     95 % 0.0 in 0.0 W/m2 CLR
08:05 -1.2 °F -1.9 °F 1027.0 in Calm     95 % 0.0 in 0.0 W/m2 CLR
08:06 -1.2 °F -1.9 °F 1027.0 in Calm     95 % 0.0 in 0.0 W/m2 CLR
08:11 -1.2 °F -1.9 °F 1027.0 in Calm     95 % 0.0 in 0.0 W/m2 CLR
08:16 -1.2 °F -1.9 °F 1027.0 in Calm     95 % 0.0 in 0.0 W/m2 CLR
08:21 -1.2 °F -1.9 °F 1027.0 in Calm     95 % 0.0 in 0.0 W/m2 CLR
08:26 -1.2 °F -1.9 °F 1027.0 in Calm     95 % 0.0 in 0.0 W/m2 OVC
08:31 -1.2 °F -1.9 °F 1027.0 in Calm     95 % 0.0 in 5.0 W/m2 BKN
08:36 -1.2 °F -1.9 °F 1027.0 in Calm     95 % 0.0 in 9.0 W/m2 BKN
08:41 -1.3 °F -2.0 °F 1027.0 in Calm     95 % 0.0 in 11.0 W/m2 BKN
08:46 -1.3 °F -2.0 °F 1027.3 in Calm     95 % 0.0 in 12.0 W/m2 BKN
08:51 -1.3 °F -2.1 °F 1027.3 in Calm     95 % 0.0 in 12.0 W/m2 BKN
08:56 -1.4 °F -2.1 °F 1027.3 in Calm     95 % 0.0 in 14.0 W/m2 BKN
09:01 -1.5 °F -2.2 °F 1027.7 in Calm     95 % 0.0 in 16.0 W/m2 BKN
09:06 -1.6 °F -2.3 °F 1027.7 in Calm     95 % 0.0 in 21.0 W/m2 BKN
09:11 -1.6 °F -2.3 °F 1027.7 in Calm     95 % 0.0 in 42.0 W/m2 BKN
09:16 -1.6 °F -2.3 °F 1027.7 in Calm     95 % 0.0 in 54.0 W/m2 BKN
09:21 -1.5 °F -2.2 °F 1027.7 in Calm     95 % 0.0 in 44.0 W/m2 BKN
09:26 -1.4 °F -2.2 °F 1027.7 in Calm     95 % 0.0 in 35.0 W/m2 BKN
09:31 -1.3 °F -2.1 °F 1027.7 in Calm     95 % 0.0 in 47.0 W/m2 BKN
09:36 -1.3 °F -2.1 °F 1027.7 in Calm     95 % 0.0 in 46.0 W/m2 BKN
09:41 -1.3 °F -2.0 °F 1027.7 in Calm     95 % 0.0 in 77.0 W/m2 BKN
09:46 -1.2 °F -1.9 °F 1027.7 in Calm     95 % 0.0 in 65.0 W/m2 BKN
09:51 -1.2 °F -1.9 °F 1028.0 in Calm     95 % 0.0 in 70.0 W/m2 BKN
09:56 -1.1 °F -1.8 °F 1028.0 in Calm     95 % 0.0 in 90.0 W/m2 BKN
10:01 -1.1 °F -1.8 °F 1027.7 in Calm     95 % 0.0 in 90.0 W/m2 BKN
10:06 -1.0 °F -1.7 °F 1028.0 in Calm     95 % 0.0 in 84.0 W/m2 BKN
10:11 -0.9 °F -1.7 °F 1028.0 in Calm     95 % 0.0 in 97.0 W/m2 BKN
10:16 -0.9 °F -1.6 °F 1028.0 in Calm     95 % 0.0 in 88.0 W/m2 BKN
10:21 -0.9 °F -1.6 °F 1028.0 in Calm     95 % 0.0 in 90.0 W/m2 BKN
10:26 -0.8 °F -1.6 °F 1028.3 in Calm     95 % 0.0 in 100.0 W/m2 BKN
10:31 -0.8 °F -1.6 °F 1028.3 in Calm     95 % 0.0 in 102.0 W/m2 BKN
10:36 -0.8 °F -1.6 °F 1028.3 in Calm     95 % 0.0 in 104.0 W/m2 BKN
10:41 -0.8 °F -1.5 °F 1028.3 in Calm     95 % 0.0 in 97.0 W/m2 BKN
10:46 -0.7 °F -1.4 °F 1028.3 in Calm     95 % 0.0 in 111.0 W/m2 BKN
10:51 -0.7 °F -1.4 °F 1028.3 in Calm     95 % 0.0 in 100.0 W/m2 BKN
10:56 -0.6 °F -1.3 °F 1028.3 in Calm     95 % 0.0 in 118.0 W/m2 BKN
11:01 -0.6 °F -1.3 °F 1028.3 in Calm     95 % 0.0 in 178.0 W/m2 BKN
11:06 -0.4 °F -1.2 °F 1028.3 in Calm     95 % 0.0 in 172.0 W/m2 BKN
11:11 -0.2 °F -0.9 °F 1028.3 in Calm     95 % 0.0 in 135.0 W/m2 BKN
11:16 -0.2 °F -0.9 °F 1028.3 in Calm     95 % 0.0 in 146.0 W/m2 BKN
11:21 -0.2 °F -0.9 °F 1028.3 in Calm     95 % 0.0 in 178.0 W/m2 BKN
11:26 -0.2 °F -0.9 °F 1028.3 in Calm     95 % 0.0 in 185.0 W/m2 BKN
11:31 0.0 °F -0.7 °F 1028.3 in Calm     95 % 0.0 in 165.0 W/m2 BKN
11:36 0.2 °F -0.6 °F 1028.3 in Calm     95 % 0.0 in 149.0 W/m2 BKN
11:41 0.3 °F -0.3 °F 1028.3 in Calm     96 % 0.0 in 158.0 W/m2 BKN
11:46 0.4 °F -0.2 °F 1028.3 in Calm     96 % 0.0 in 156.0 W/m2 BKN
11:51 0.4 °F -0.2 °F 1028.3 in Calm     96 % 0.0 in 162.0 W/m2 BKN
11:56 0.4 °F -0.3 °F 1028.3 in Calm     95 % 0.0 in 153.0 W/m2 BKN
12:01 0.5 °F -0.2 °F 1028.3 in Calm     95 % 0.0 in 146.0 W/m2 BKN
12:06 0.5 °F -0.2 °F 1028.3 in Calm     95 % 0.0 in 163.0 W/m2 BKN
12:11 0.6 °F -0.1 °F 1028.3 in Calm     95 % 0.0 in 146.0 W/m2 BKN
12:16 0.6 °F -0.1 °F 1028.3 in Calm     95 % 0.0 in 181.0 W/m2 BKN
12:22 0.7 °F 0.1 °F 1028.3 in Calm     96 % 0.0 in 167.0 W/m2 BKN
12:27 0.8 °F 0.1 °F 1028.0 in Calm     95 % 0.0 in 167.0 W/m2 BKN
12:32 1.0 °F 0.4 °F 1028.0 in Calm     96 % 0.0 in 185.0 W/m2 BKN
12:37 1.0 °F 0.4 °F 1028.0 in Calm     96 % 0.0 in 174.0 W/m2 BKN
12:42 1.1 °F 0.3 °F 1028.0 in Calm     95 % 0.0 in 178.0 W/m2 BKN
12:47 1.1 °F 0.5 °F 1027.7 in Calm     96 % 0.0 in 193.0 W/m2 BKN
12:52 1.2 °F 0.4 °F 1027.7 in Calm     95 % 0.0 in 160.0 W/m2 BKN
12:57 1.3 °F 0.7 °F 1027.7 in Calm     96 % 0.0 in 137.0 W/m2 BKN
13:02 1.3 °F 0.8 °F 1027.7 in Calm     96 % 0.0 in 169.0 W/m2 BKN
13:07 1.4 °F 0.7 °F 1027.3 in Calm     95 % 0.0 in 193.0 W/m2 BKN
13:12 1.4 °F 0.7 °F 1027.3 in Calm     95 % 0.0 in 186.0 W/m2 BKN
13:17 1.4 °F 0.7 °F 1027.3 in Calm     95 % 0.0 in 160.0 W/m2 BKN
13:22 1.4 °F 0.7 °F 1027.3 in Calm     95 % 0.0 in 207.0 W/m2 BKN
13:27 1.5 °F 0.8 °F 1027.3 in Calm     95 % 0.0 in 216.0 W/m2 BKN
13:32 1.7 °F 1.0 °F 1027.3 in Calm     95 % 0.0 in 204.0 W/m2 BKN
13:37 1.8 °F 1.1 °F 1027.0 in Calm     95 % 0.0 in 162.0 W/m2 BKN
13:42 2.0 °F 1.4 °F 1027.0 in Calm     96 % 0.0 in 176.0 W/m2 BKN
13:47 2.0 °F 1.4 °F 1027.0 in Calm     96 % 0.0 in 174.0 W/m2 BKN
13:52 1.9 °F 1.4 °F 1027.0 in Calm     96 % 0.0 in 190.0 W/m2 BKN
13:57 2.1 °F 1.6 °F 1027.0 in Calm     96 % 0.0 in 174.0 W/m2 BKN
14:02 2.1 °F 1.4 °F 1027.0 in Calm     95 % 0.0 in 179.0 W/m2 BKN
14:07 2.2 °F 1.4 °F 1027.0 in Calm     95 % 0.0 in 185.0 W/m2 BKN
14:12 2.1 °F 1.4 °F 1027.0 in Calm     95 % 0.0 in 193.0 W/m2 BKN
14:17 2.1 °F 1.4 °F 1026.6 in Calm     95 % 0.0 in 179.0 W/m2 BKN
14:22 2.3 °F 1.6 °F 1026.6 in Calm     95 % 0.0 in 192.0 W/m2 BKN
14:27 2.4 °F 1.7 °F 1026.6 in Calm     95 % 0.0 in 227.0 W/m2 BKN
14:32 2.4 °F 1.7 °F 1026.6 in Calm     95 % 0.0 in 216.0 W/m2 SCT
14:37 2.5 °F 1.9 °F 1026.3 in Calm     96 % 0.0 in 199.0 W/m2 SCT
14:42 2.6 °F 2.1 °F 1026.3 in Calm     96 % 0.0 in 195.0 W/m2 SCT
14:47 2.7 °F 2.2 °F 1026.3 in Calm     96 % 0.0 in 158.0 W/m2 SCT
14:52 2.8 °F 2.1 °F 1026.3 in Calm     95 % 0.0 in 230.0 W/m2 SCT
14:57 2.9 °F 2.3 °F 1026.0 in Calm     96 % 0.0 in 190.0 W/m2 SCT
15:02 2.9 °F 2.4 °F 1026.0 in Calm     96 % 0.0 in 192.0 W/m2 SCT
15:07 2.9 °F 2.4 °F 1026.0 in Calm     96 % 0.0 in 118.0 W/m2 SCT
15:12 2.9 °F 2.4 °F 1026.0 in Calm     96 % 0.0 in 128.0 W/m2 BKN
15:17 3.0 °F 2.4 °F 1026.0 in Calm     96 % 0.0 in 104.0 W/m2 BKN
15:22 3.1 °F 2.5 °F 1026.0 in Calm     96 % 0.0 in 77.0 W/m2 BKN
15:27 3.2 °F 2.4 °F 1026.0 in Calm     95 % 0.0 in 91.0 W/m2 BKN
15:32 3.2 °F 2.7 °F 1026.0 in Calm     96 % 0.0 in 167.0 W/m2 BKN
15:37 3.5 °F 2.8 °F 1026.0 in Calm     95 % 0.0 in 146.0 W/m2 SCT
15:42 3.6 °F 3.1 °F 1026.0 in Calm     96 % 0.0 in 116.0 W/m2 SCT
15:47 3.7 °F 2.9 °F 1026.0 in Calm     95 % 0.0 in 67.0 W/m2 SCT
15:52 3.7 °F 2.9 °F 1026.0 in Calm     95 % 0.0 in 79.0 W/m2 BKN
15:57 3.8 °F 3.1 °F 1026.0 in Calm     95 % 0.0 in 113.0 W/m2 BKN
16:02 3.9 °F 3.3 °F 1026.0 in Calm     96 % 0.0 in 84.0 W/m2 SCT
16:07 4.1 °F 3.3 °F 1026.0 in Calm     95 % 0.0 in 63.0 W/m2 SCT
16:12 4.1 °F 3.4 °F 1026.0 in Calm     95 % 0.0 in 63.0 W/m2 BKN
16:17 4.1 °F 3.4 °F 1026.0 in Calm     95 % 0.0 in 70.0 W/m2 BKN
16:22 4.2 °F 3.4 °F 1026.0 in Calm     95 % 0.0 in 81.0 W/m2 SCT
16:27 4.3 °F 3.7 °F 1026.0 in Calm     96 % 0.0 in 65.0 W/m2 SCT
16:32 4.3 °F 3.6 °F 1026.0 in Calm     95 % 0.0 in 62.0 W/m2 SCT
16:37 4.3 °F 3.6 °F 1026.0 in Calm     95 % 0.0 in 60.0 W/m2 FEW
16:42 4.3 °F 3.6 °F 1026.0 in Calm     95 % 0.0 in 49.0 W/m2 CLR
16:47 4.2 °F 3.5 °F 1026.0 in Calm     95 % 0.0 in 49.0 W/m2 CLR
16:52 4.2 °F 3.4 °F 1026.0 in Calm     95 % 0.0 in 51.0 W/m2 CLR
16:57 4.2 °F 3.4 °F 1026.0 in Calm     95 % 0.0 in 44.0 W/m2 OVC
17:02 4.1 °F 3.4 °F 1026.0 in Calm     95 % 0.0 in 39.0 W/m2 OVC
17:07 4.1 °F 3.4 °F 1026.0 in Calm     95 % 0.0 in 39.0 W/m2 OVC
17:12 4.2 °F 3.4 °F 1026.0 in Calm     95 % 0.0 in 33.0 W/m2 OVC
17:17 4.1 °F 3.4 °F 1026.0 in Calm     95 % 0.0 in 23.0 W/m2 OVC
17:22 4.1 °F 3.3 °F 1026.0 in Calm     95 % 0.0 in 19.0 W/m2 OVC
17:27 4.1 °F 3.3 °F 1026.0 in Calm     95 % 0.0 in 14.0 W/m2 OVC
17:32 4.0 °F 3.3 °F 1026.0 in Calm     95 % 0.0 in 12.0 W/m2 OVC
17:37 3.9 °F 3.2 °F 1026.0 in Calm     95 % 0.0 in 9.0 W/m2 OVC
17:42 3.9 °F 3.2 °F 1026.0 in Calm     95 % 0.0 in 5.0 W/m2 OVC
17:47 3.9 °F 3.2 °F 1026.0 in Calm     95 % 0.0 in 0.0 W/m2 CLR
17:53 3.7 °F 3.0 °F 1026.0 in Calm     95 % 0.0 in 0.0 W/m2 CLR
17:58 3.5 °F 2.8 °F 1026.0 in Calm     95 % 0.0 in 0.0 W/m2 CLR
18:03 3.6 °F 2.8 °F 1026.0 in Calm     95 % 0.0 in 0.0 W/m2 CLR
18:08 3.6 °F 2.8 °F 1026.0 in Calm     95 % 0.0 in 0.0 W/m2 CLR
18:13 3.5 °F 2.8 °F 1026.0 in Calm     95 % 0.0 in 0.0 W/m2 CLR
18:18 3.3 °F 2.6 °F 1026.3 in Calm     95 % 0.0 in 0.0 W/m2 CLR
18:23 3.1 °F 2.3 °F 1026.0 in Calm     95 % 0.0 in 0.0 W/m2 CLR
18:28 2.9 °F 2.2 °F 1026.3 in Calm     95 % 0.0 in 0.0 W/m2 CLR
18:33 2.8 °F 2.1 °F 1026.3 in Calm     95 % 0.0 in 0.0 W/m2 CLR
18:38 2.8 °F 2.1 °F 1026.3 in Calm     95 % 0.0 in 0.0 W/m2 CLR
18:43 2.8 °F 2.1 °F 1026.3 in Calm     95 % 0.0 in 0.0 W/m2 CLR
18:48 2.9 °F 2.2 °F 1026.3 in Calm     95 % 0.0 in 0.0 W/m2 CLR
18:53 2.9 °F 2.2 °F 1026.3 in Calm     95 % 0.0 in 0.0 W/m2 CLR
18:58 2.8 °F 2.1 °F 1026.3 in Calm     95 % 0.0 in 0.0 W/m2 CLR
19:03 2.8 °F 2.1 °F 1026.3 in Calm     95 % 0.0 in 0.0 W/m2 CLR
19:08 2.9 °F 2.2 °F 1026.3 in Calm     95 % 0.0 in 0.0 W/m2 CLR
19:13 2.9 °F 2.2 °F 1026.3 in Calm     95 % 0.0 in 0.0 W/m2 CLR
19:18 2.9 °F 2.2 °F 1026.3 in Calm     95 % 0.0 in 0.0 W/m2 CLR
19:23 2.9 °F 2.2 °F 1026.6 in Calm     95 % 0.0 in 0.0 W/m2 CLR
19:28 2.8 °F 2.1 °F 1026.6 in Calm     95 % 0.0 in 0.0 W/m2 CLR
19:33 2.8 °F 2.1 °F 1026.6 in Calm     95 % 0.0 in 0.0 W/m2 CLR
19:38 2.8 °F 2.1 °F 1027.0 in Calm     95 % 0.0 in 0.0 W/m2 CLR
19:43 2.8 °F 2.1 °F 1027.0 in Calm     95 % 0.0 in 0.0 W/m2 CLR
19:48 2.7 °F 2.0 °F 1027.0 in Calm     95 % 0.0 in 0.0 W/m2 CLR
19:53 2.8 °F 2.1 °F 1027.0 in Calm     95 % 0.0 in 0.0 W/m2 CLR
19:58 2.9 °F 2.2 °F 1027.0 in Calm     95 % 0.0 in 0.0 W/m2 CLR
20:03 2.8 °F 2.1 °F 1027.0 in Calm     95 % 0.0 in 0.0 W/m2 CLR
20:08 2.5 °F 1.8 °F 1027.0 in Calm     95 % 0.0 in 0.0 W/m2 CLR
20:13 2.4 °F 1.7 °F 1027.0 in Calm     95 % 0.0 in 0.0 W/m2 CLR
20:18 2.4 °F 1.7 °F 1027.0 in Calm     95 % 0.0 in 0.0 W/m2 CLR
20:23 2.3 °F 1.6 °F 1027.3 in Calm     95 % 0.0 in 0.0 W/m2 CLR
20:28 2.2 °F 1.5 °F 1027.3 in Calm     95 % 0.0 in 0.0 W/m2 CLR
20:33 2.1 °F 1.4 °F 1027.3 in Calm     95 % 0.0 in 0.0 W/m2 CLR
20:38 2.1 °F 1.3 °F 1027.3 in Calm     95 % 0.0 in 0.0 W/m2 CLR
20:43 2.0 °F 1.3 °F 1027.3 in Calm     95 % 0.0 in 0.0 W/m2 CLR
20:48 1.9 °F 1.2 °F 1027.7 in Calm     95 % 0.0 in 0.0 W/m2 CLR
20:53 1.8 °F 1.1 °F 1027.3 in Calm     95 % 0.0 in 0.0 W/m2 CLR
20:58 1.7 °F 0.9 °F 1027.3 in Calm     95 % 0.0 in 0.0 W/m2 CLR
21:03 1.6 °F 0.8 °F 1027.3 in Calm     95 % 0.0 in 0.0 W/m2 CLR
21:08 1.6 °F 0.8 °F 1027.3 in Calm     95 % 0.0 in 0.0 W/m2 CLR
21:13 1.6 °F 0.8 °F 1027.3 in Calm     95 % 0.0 in 0.0 W/m2 CLR
21:18 1.4 °F 0.7 °F 1027.3 in Calm     95 % 0.0 in 0.0 W/m2 CLR
21:23 1.2 °F 0.5 °F 1027.3 in Calm     95 % 0.0 in 0.0 W/m2 CLR
21:28 1.0 °F 0.3 °F 1027.3 in Calm     95 % 0.0 in 0.0 W/m2 CLR
21:33 0.8 °F 0.1 °F 1027.3 in Calm     95 % 0.0 in 0.0 W/m2 CLR
21:38 0.8 °F 0.1 °F 1027.3 in Calm     95 % 0.0 in 0.0 W/m2 CLR
21:43 0.6 °F -0.1 °F 1027.3 in Calm     95 % 0.0 in 0.0 W/m2 CLR
21:48 0.6 °F -0.1 °F 1027.7 in Calm     95 % 0.0 in 0.0 W/m2 CLR
21:53 0.6 °F -0.1 °F 1027.7 in Calm     95 % 0.0 in 0.0 W/m2 CLR
21:58 0.7 °F -0.1 °F 1027.7 in Calm     95 % 0.0 in 0.0 W/m2 CLR
22:03 0.7 °F 0.0 °F 1027.7 in Calm     95 % 0.0 in 0.0 W/m2 CLR
22:08 0.7 °F 0.0 °F 1027.7 in Calm     95 % 0.0 in 0.0 W/m2 CLR
22:13 0.7 °F -0.1 °F 1027.7 in Calm     95 % 0.0 in 0.0 W/m2 CLR
22:19 0.6 °F -0.2 °F 1027.7 in Calm     95 % 0.0 in 0.0 W/m2 CLR
22:24 0.5 °F -0.2 °F 1027.7 in Calm     95 % 0.0 in 0.0 W/m2 CLR
22:29 0.4 °F -0.3 °F 1027.7 in Calm     95 % 0.0 in 0.0 W/m2 CLR
22:34 0.2 °F -0.5 °F 1027.7 in Calm     95 % 0.0 in 0.0 W/m2 CLR
22:39 0.2 °F -0.6 °F 1027.7 in Calm     95 % 0.0 in 0.0 W/m2 CLR
22:44 0.1 °F -0.7 °F 1027.7 in Calm     95 % 0.0 in 0.0 W/m2 CLR
22:49 -0.1 °F -0.8 °F 1027.7 in Calm     95 % 0.0 in 0.0 W/m2 CLR
22:54 0.0 °F -0.7 °F 1027.7 in Calm     95 % 0.0 in 0.0 W/m2 CLR
22:59 0.0 °F -0.7 °F 1027.7 in Calm     95 % 0.0 in 0.0 W/m2 CLR
23:04 -0.1 °F -0.8 °F 1027.7 in Calm     95 % 0.0 in 0.0 W/m2 CLR
23:09 -0.1 °F -0.8 °F 1027.7 in Calm     95 % 0.0 in 0.0 W/m2 CLR
23:14 -0.2 °F -0.9 °F 1027.7 in Calm     95 % 0.0 in 0.0 W/m2 CLR
23:19 -0.3 °F -1.0 °F 1027.7 in Calm     95 % 0.0 in 0.0 W/m2 CLR
23:24 -0.3 °F -1.0 °F 1027.7 in Calm     95 % 0.0 in 0.0 W/m2 CLR
23:29 -0.3 °F -1.1 °F 1027.7 in Calm     95 % 0.0 in 0.0 W/m2 CLR
23:34 -0.4 °F -1.1 °F 1027.7 in Calm     95 % 0.0 in 0.0 W/m2 CLR
23:39 -0.4 °F -1.1 °F 1027.7 in Calm     95 % 0.0 in 0.0 W/m2 CLR
23:44 -0.4 °F -1.1 °F 1027.7 in Calm     95 % 0.0 in 0.0 W/m2 CLR
23:49 -0.4 °F -1.2 °F 1027.7 in Calm     95 % 0.0 in 0.0 W/m2 CLR
23:54 -0.5 °F -1.2 °F 1027.7 in Calm     95 % 0.0 in 0.0 W/m2 CLR
23:59 -0.5 °F -1.2 °F 1028.0 in Calm     95 % 0.0 in 0.0 W/m2 CLR
Lo Temps de Massalio
Compliments of Weather Underground - 1.25 mb